Time;durP1;ratioP1;P1;durP2;ratioP2;P2;SDS_P1;SDS_P2;PMS_P1;PMS_P2;Temp;Humidity;BMP_temperature;BMP_pressure;BME280_temperature;BME280_humidity;BME280_pressure;Samples;Min_cycle;Max_cycle;Signal;HPM_P1;HPM_P2
2023/02/04 00:00:00;;;;;;;44.10;42.45;;;11.10;96.50;;;;;;5048502;28;20050;-80
2023/02/04 00:02:26;;;;;;;43.53;41.92;;;11.10;96.50;;;;;;5030672;28;20147;-80
2023/02/04 00:04:51;;;;;;;42.30;40.70;;;11.10;96.60;;;;;;5048816;28;20048;-80
2023/02/04 00:07:17;;;;;;;40.72;39.22;;;11.20;96.60;;;;;;5030766;28;20029;-80
2023/02/04 00:09:48;;;;;;;40.30;38.80;;;11.20;96.60;;;;;;5048299;28;20393;-80
2023/02/04 00:12:15;;;;;;;38.75;37.28;;;11.20;96.60;;;;;;5046998;28;20060;-80
2023/02/04 00:14:41;;;;;;;38.78;37.28;;;11.20;96.50;;;;;;5030248;28;20029;-80
2023/02/04 00:17:09;;;;;;;40.10;38.60;;;11.20;96.50;;;;;;5048147;28;20497;-80
2023/02/04 00:19:35;;;;;;;38.58;37.15;;;11.20;96.50;;;;;;5048090;28;20150;-80
2023/02/04 00:22:02;;;;;;;39.60;38.10;;;11.20;96.50;;;;;;5048144;28;20040;-79
2023/02/04 00:24:29;;;;;;;38.90;37.40;;;11.30;96.50;;;;;;5046746;28;20535;-80
2023/02/04 00:26:56;;;;;;;35.75;34.42;;;11.20;96.50;;;;;;5047810;28;20029;-80
2023/02/04 00:29:22;;;;;;;39.80;38.30;;;11.30;96.50;;;;;;5047981;28;20017;-80
2023/02/04 00:31:47;;;;;;;39.50;38.00;;;11.20;96.50;;;;;;5030501;28;20028;-80
2023/02/04 00:34:13;;;;;;;35.67;34.35;;;11.20;96.50;;;;;;5048072;28;20037;-80
2023/02/04 00:36:39;;;;;;;37.88;36.47;;;11.30;96.50;;;;;;5048413;28;20032;-80
2023/02/04 00:39:05;;;;;;;39.50;38.00;;;11.30;96.50;;;;;;5047289;28;20028;-80
2023/02/04 00:41:30;;;;;;;36.30;34.90;;;11.30;96.50;;;;;;5047031;28;20091;-80
2023/02/04 00:43:56;;;;;;;36.70;35.30;;;11.30;96.50;;;;;;5048524;28;20033;-80
2023/02/04 00:46:22;;;;;;;38.33;36.92;;;11.30;96.50;;;;;;5048192;28;20393;-80
2023/02/04 00:48:47;;;;;;;38.35;36.95;;;11.30;96.50;;;;;;5046955;28;20032;-80
2023/02/04 00:51:13;;;;;;;36.22;34.83;;;11.30;96.50;;;;;;5048115;28;20416;-80
2023/02/04 00:53:39;;;;;;;39.85;38.35;;;11.30;96.40;;;;;;5046926;28;20041;-80
2023/02/04 00:56:05;;;;;;;38.17;36.78;;;11.30;96.50;;;;;;5030212;28;20029;-80
2023/02/04 00:58:30;;;;;;;37.83;36.42;;;11.30;96.40;;;;;;5046600;28;20136;-80
2023/02/04 01:00:56;;;;;;;37.97;36.58;;;11.30;96.40;;;;;;5049008;28;20037;-79
2023/02/04 01:03:22;;;;;;;36.97;35.58;;;11.30;96.40;;;;;;5048114;28;20036;-80
2023/02/04 01:05:48;;;;;;;38.40;37.00;;;11.30;96.40;;;;;;5046765;28;20402;-79
2023/02/04 01:08:13;;;;;;;38.70;37.30;;;11.30;96.40;;;;;;5047727;28;20067;-80
2023/02/04 01:10:39;;;;;;;36.95;35.55;;;11.30;96.40;;;;;;5047703;28;20112;-79
2023/02/04 01:13:07;;;;;;;37.80;36.40;;;11.30;96.40;;;;;;5046447;28;20102;-79
2023/02/04 01:15:33;;;;;;;34.90;33.60;;;11.30;96.40;;;;;;5030180;28;20032;-79
2023/02/04 01:17:59;;;;;;;35.45;34.15;;;11.30;96.40;;;;;;5046498;28;20029;-79
2023/02/04 01:20:25;;;;;;;32.47;31.27;;;11.30;96.40;;;;;;5047687;28;20029;-79
2023/02/04 01:22:51;;;;;;;29.35;28.25;;;11.30;96.40;;;;;;5046397;28;20094;-79
2023/02/04 01:25:16;;;;;;;29.90;28.80;;;11.30;96.40;;;;;;5046291;28;20075;-80
2023/02/04 01:27:45;;;;;;;30.30;29.15;;;11.30;96.40;;;;;;5047544;28;20096;-79
2023/02/04 01:30:13;;;;;;;27.83;26.73;;;11.30;96.50;;;;;;5046212;28;20402;-80
2023/02/04 01:32:39;;;;;;;27.23;26.20;;;11.40;96.50;;;;;;5047664;28;20083;-80
2023/02/04 01:35:05;;;;;;;26.45;25.45;;;11.40;96.50;;;;;;5046213;28;20028;-80
2023/02/04 01:37:31;;;;;;;25.20;24.20;;;11.30;96.40;;;;;;5047415;28;20033;-80
2023/02/04 01:39:57;;;;;;;24.40;23.40;;;11.40;96.40;;;;;;5046481;28;20390;-80
2023/02/04 01:42:22;;;;;;;24.45;23.45;;;11.30;96.60;;;;;;5047493;28;20033;-80
2023/02/04 01:44:49;;;;;;;24.55;23.55;;;11.30;96.40;;;;;;5047382;28;20053;-80
2023/02/04 01:47:15;;;;;;;22.75;21.85;;;11.30;96.40;;;;;;5046181;28;20112;-80
2023/02/04 01:49:41;;;;;;;22.42;21.52;;;11.30;96.40;;;;;;5047534;28;20312;-80
2023/02/04 01:52:09;;;;;;;22.90;22.00;;;11.30;96.40;;;;;;5046184;28;20603;-80
2023/02/04 01:54:34;;;;;;;22.90;22.00;;;11.30;96.40;;;;;;5046200;28;20047;-80
2023/02/04 01:57:02;;;;;;;22.45;21.55;;;11.30;96.40;;;;;;5045974;28;20041;-79
2023/02/04 01:59:28;;;;;;;23.45;22.55;;;11.30;96.40;;;;;;5047483;28;20032;-79
2023/02/04 02:01:54;;;;;;;23.00;22.10;;;11.30;96.40;;;;;;5047177;28;20029;-69
2023/02/04 02:04:37;;;;;;;21.17;20.38;;;11.30;96.50;;;;;;5047415;28;20700;-79
2023/02/04 02:07:05;;;;;;;21.70;20.80;;;11.20;96.40;;;;;;5046069;28;20046;-79
2023/02/04 02:09:32;;;;;;;20.95;20.15;;;11.20;96.40;;;;;;5047407;28;20053;-80
2023/02/04 02:11:59;;;;;;;20.60;19.80;;;11.20;96.50;;;;;;5050862;28;20538;-79
2023/02/04 02:14:25;;;;;;;19.65;18.85;;;11.20;96.40;;;;;;5051166;28;20074;-79
2023/02/04 02:16:51;;;;;;;19.58;18.77;;;11.20;96.50;;;;;;5049932;28;20037;-80
2023/02/04 02:19:27;;;;;;;20.02;19.23;;;11.20;96.50;;;;;;5049841;28;20029;-80
2023/02/04 02:22:02;;;;;;;18.63;17.83;;;11.10;96.50;;;;;;5051122;28;20049;-79
2023/02/04 02:24:29;;;;;;;17.10;16.40;;;11.20;96.50;;;;;;5049714;28;20283;-79
2023/02/04 02:26:56;;;;;;;17.45;16.75;;;11.20;96.50;;;;;;5050987;28;20018;-80
2023/02/04 02:29:22;;;;;;;17.27;16.58;;;11.20;96.50;;;;;;5051040;28;20021;-79
2023/02/04 02:31:49;;;;;;;16.55;15.85;;;11.20;96.50;;;;;;5049584;28;20489;-80
2023/02/04 02:34:15;;;;;;;16.80;16.10;;;11.20;96.40;;;;;;5034270;28;20037;-80
2023/02/04 02:36:41;;;;;;;16.20;15.50;;;11.20;96.40;;;;;;5051567;28;20025;-80
2023/02/04 02:39:07;;;;;;;16.15;15.45;;;11.20;96.40;;;;;;5049622;28;20521;-81
2023/02/04 02:41:34;;;;;;;;;;;11.20;96.40;;;;;;5049957;28;20490;-80
2023/02/04 02:44:01;;;;;;;15.13;14.52;;;11.10;96.40;;;;;;5050642;28;19916;-79
2023/02/04 02:46:27;;;;;;;14.60;14.00;;;11.10;96.40;;;;;;5049253;28;20029;-80
2023/02/04 02:48:53;;;;;;;14.75;14.15;;;11.10;96.40;;;;;;5050619;28;20083;-80
2023/02/04 02:51:19;;;;;;;14.38;13.77;;;11.10;96.50;;;;;;5049350;28;20037;-80
2023/02/04 02:53:46;;;;;;;14.55;13.95;;;11.10;96.40;;;;;;5049373;28;20029;-79
2023/02/04 02:56:12;;;;;;;14.73;14.13;;;11.10;96.40;;;;;;5050311;28;20044;-79
2023/02/04 02:58:38;;;;;;;14.82;14.23;;;11.10;96.40;;;;;;5032720;28;20456;-79
2023/02/04 03:01:06;;;;;;;14.85;14.25;;;11.10;96.40;;;;;;5050316;28;20037;-70
2023/02/04 03:03:35;;;;;;;15.52;14.82;;;11.10;96.40;;;;;;5050653;28;20455;-80
2023/02/04 03:06:11;;;;;;;15.40;14.75;;;11.10;96.40;;;;;;5050464;28;20017;-80
2023/02/04 03:08:38;;;;;;;15.75;15.05;;;11.00;96.40;;;;;;5049181;28;20025;-79
2023/02/04 03:11:04;;;;;;;15.63;14.95;;;11.00;96.40;;;;;;5050297;28;20025;-79
2023/02/04 03:13:30;;;;;;;14.73;14.13;;;11.00;96.40;;;;;;5049003;28;20032;-79
2023/02/04 03:15:56;;;;;;;14.23;13.63;;;11.00;96.40;;;;;;5048895;28;20039;-79
2023/02/04 03:18:22;;;;;;;14.57;13.98;;;11.00;96.40;;;;;;5032269;28;20116;-79
2023/02/04 03:20:50;;;;;;;14.27;13.68;;;11.00;96.40;;;;;;5049976;28;20041;-80
2023/02/04 03:23:16;;;;;;;13.57;12.98;;;11.00;96.40;;;;;;5048626;28;20037;-80
2023/02/04 03:25:42;;;;;;;12.70;12.10;;;11.00;96.40;;;;;;5032115;28;20025;-80
2023/02/04 03:28:08;;;;;;;12.85;12.25;;;10.90;96.40;;;;;;5048593;28;20082;-79
2023/02/04 03:30:34;;;;;;;11.80;11.30;;;11.00;96.40;;;;;;5048699;28;20033;-80
2023/02/04 03:33:00;;;;;;;11.82;11.32;;;11.00;96.40;;;;;;5048600;28;20030;-79
2023/02/04 03:35:26;;;;;;;11.10;10.60;;;11.00;96.40;;;;;;5032127;28;20033;-80
2023/02/04 03:37:51;;;;;;;11.15;10.65;;;11.00;96.40;;;;;;5015179;28;20032;-79
2023/02/04 03:40:17;;;;;;;10.68;10.18;;;11.00;96.40;;;;;;5049458;28;20395;-74
2023/02/04 03:42:43;;;;;;;11.02;10.52;;;11.00;96.40;;;;;;5031434;28;20041;-74
2023/02/04 03:45:09;;;;;;;10.35;9.85;;;10.90;96.40;;;;;;5049182;28;20547;-74
2023/02/04 03:47:34;;;;;;;11.23;10.73;;;11.00;96.40;;;;;;5047805;28;20108;-75
2023/02/04 03:50:00;;;;;;;10.20;9.70;;;10.90;96.30;;;;;;5049248;28;20075;-74
2023/02/04 03:52:26;;;;;;;10.60;10.10;;;10.90;96.30;;;;;;5049169;28;20029;-74
2023/02/04 03:54:51;;;;;;;10.02;9.52;;;10.90;96.30;;;;;;5049075;28;20033;-75
2023/02/04 03:57:17;;;;;;;9.82;9.32;;;10.90;96.30;;;;;;5031047;28;20053;-74
2023/02/04 03:59:43;;;;;;;9.27;8.85;;;10.90;96.40;;;;;;5047652;28;20115;-75
2023/02/04 04:02:09;;;;;;;8.93;8.52;;;10.90;96.30;;;;;;5048888;28;20036;-75
2023/02/04 04:04:35;;;;;;;9.30;8.88;;;10.90;96.30;;;;;;5047448;28;20037;-74
2023/02/04 04:07:00;;;;;;;8.57;8.18;;;10.90;96.50;;;;;;5048832;28;20025;-75
2023/02/04 04:09:26;;;;;;;8.70;8.30;;;10.90;96.30;;;;;;5047473;28;20112;-75
2023/02/04 04:11:52;;;;;;;9.27;8.85;;;10.80;96.30;;;;;;5048729;28;20543;-74
2023/02/04 04:14:17;;;;;;;8.02;7.63;;;10.80;96.30;;;;;;5030758;28;20037;-74
2023/02/04 04:16:43;;;;;;;8.18;7.78;;;10.80;96.30;;;;;;5048495;28;20029;-74
2023/02/04 04:19:09;;;;;;;8.05;7.65;;;10.80;96.30;;;;;;5048629;28;20478;-74
2023/02/04 04:21:34;;;;;;;8.90;8.50;;;10.80;96.30;;;;;;5047433;28;20394;-75
2023/02/04 04:24:00;;;;;;;8.30;7.90;;;10.80;96.30;;;;;;5048434;28;20040;-74
2023/02/04 04:26:26;;;;;;;7.90;7.50;;;10.80;96.30;;;;;;5030656;28;20075;-74
2023/02/04 04:28:51;;;;;;;7.90;7.50;;;10.80;96.30;;;;;;5047227;28;20178;-74
2023/02/04 04:31:17;;;;;;;8.68;8.27;;;10.80;96.30;;;;;;5047318;28;20021;-75
2023/02/04 04:33:43;;;;;;;8.43;8.02;;;10.80;96.30;;;;;;5047989;28;20036;-75
2023/02/04 04:36:09;;;;;;;8.25;7.85;;;10.80;96.30;;;;;;5047060;28;20035;-74
2023/02/04 04:38:34;;;;;;;7.93;7.53;;;10.80;96.30;;;;;;5046919;28;20043;-75
2023/02/04 04:41:00;;;;;;;8.20;7.80;;;10.70;96.30;;;;;;5048276;28;20029;-75
2023/02/04 04:43:26;;;;;;;7.85;7.45;;;10.80;96.40;;;;;;5046936;28;20507;-75
2023/02/04 04:45:52;;;;;;;7.68;7.28;;;10.80;96.30;;;;;;5046935;28;20052;-75
2023/02/04 04:48:17;;;;;;;8.32;7.93;;;10.80;96.30;;;;;;5030257;28;20033;-74
2023/02/04 04:50:43;;;;;;;7.75;7.35;;;10.80;96.30;;;;;;5048030;28;20048;-74
2023/02/04 04:53:10;;;;;;;7.63;7.22;;;10.70;96.30;;;;;;5048020;28;20029;-75
2023/02/04 04:55:39;;;;;;;8.68;8.27;;;10.80;96.30;;;;;;5047819;28;20095;-75
2023/02/04 04:58:06;;;;;;;7.90;7.50;;;10.80;96.30;;;;;;5046118;28;20045;-75
2023/02/04 05:00:32;;;;;;;7.68;7.28;;;10.80;96.30;;;;;;5046418;28;20033;-75
2023/02/04 05:02:58;;;;;;;;;;;10.80;96.30;;;;;;5046882;28;20029;-74
2023/02/04 05:05:24;;;;;;;7.28;6.88;;;10.70;96.30;;;;;;5047688;28;19916;-75
2023/02/04 05:07:50;;;;;;;8.73;8.32;;;10.80;96.30;;;;;;5046247;28;20030;-75
2023/02/04 05:10:16;;;;;;;8.10;7.70;;;10.70;96.30;;;;;;5047390;28;20033;-75
2023/02/04 05:12:42;;;;;;;;;;;10.70;96.30;;;;;;5048182;28;20033;-74
2023/02/04 05:15:08;;;;;;;8.65;8.25;;;10.80;96.30;;;;;;5046171;28;20463;-74
2023/02/04 05:17:33;;;;;;;8.00;7.60;;;10.80;96.30;;;;;;5046118;28;20024;-74
2023/02/04 05:19:59;;;;;;;7.90;7.50;;;10.80;96.30;;;;;;5029505;28;20063;-75
2023/02/04 05:22:25;;;;;;;8.35;7.95;;;10.80;96.30;;;;;;5047683;28;20060;-75
2023/02/04 05:24:50;;;;;;;7.72;7.32;;;10.80;96.30;;;;;;5046170;28;20044;-74
2023/02/04 05:27:16;;;;;;;7.75;7.35;;;10.80;96.30;;;;;;5029656;28;20029;-75
2023/02/04 05:29:42;;;;;;;7.60;7.20;;;10.80;96.30;;;;;;5046250;28;20108;-75
2023/02/04 05:32:08;;;;;;;7.82;7.43;;;10.80;96.30;;;;;;5029561;28;20085;-75
2023/02/04 05:34:33;;;;;;;8.32;7.93;;;10.80;96.30;;;;;;5029723;28;20037;-74
2023/02/04 05:36:59;;;;;;;8.40;8.00;;;10.80;96.30;;;;;;5029452;28;20037;-74
2023/02/04 05:39:25;;;;;;;8.05;7.65;;;10.80;96.30;;;;;;5029376;28;20032;-74
2023/02/04 05:41:50;;;;;;;8.35;7.95;;;10.80;96.30;;;;;;5047402;28;20147;-74
2023/02/04 05:44:16;;;;;;;8.07;7.68;;;10.80;96.30;;;;;;5045907;28;20520;-74
2023/02/04 05:46:42;;;;;;;8.15;7.75;;;10.80;96.20;;;;;;5049246;28;20028;-75
2023/02/04 05:49:07;;;;;;;8.10;7.70;;;10.70;96.20;;;;;;5050203;28;20037;-74
2023/02/04 05:51:33;;;;;;;8.45;8.05;;;10.80;96.30;;;;;;5050193;28;20546;-75
2023/02/04 05:53:59;;;;;;;7.90;7.50;;;10.80;96.30;;;;;;5049969;28;20032;-74
2023/02/04 05:56:24;;;;;;;8.00;7.60;;;10.70;96.20;;;;;;5033158;28;20060;-75
2023/02/04 05:58:50;;;;;;;7.55;7.15;;;10.80;96.30;;;;;;5049852;28;20032;-76
2023/02/04 06:01:16;;;;;;;7.53;7.13;;;10.80;96.20;;;;;;5033431;28;20041;-76
2023/02/04 06:03:42;;;;;;;7.90;7.50;;;10.70;96.30;;;;;;5050967;28;20060;-76
2023/02/04 06:06:08;;;;;;;7.50;7.10;;;10.80;96.30;;;;;;5049903;28;20056;-76
2023/02/04 06:08:33;;;;;;;8.38;7.97;;;10.80;96.20;;;;;;5049914;28;20025;-76
2023/02/04 06:10:59;;;;;;;8.05;7.65;;;10.70;96.20;;;;;;5049883;28;20041;-76
2023/02/04 06:13:25;;;;;;;8.40;8.00;;;10.70;96.20;;;;;;5051181;28;20029;-75
2023/02/04 06:15:50;;;;;;;8.43;8.02;;;10.70;96.20;;;;;;5049655;28;20543;-76
2023/02/04 06:18:16;;;;;;;9.00;8.60;;;10.70;96.20;;;;;;5049624;28;20037;-75
2023/02/04 06:20:42;;;;;;;8.65;8.25;;;10.70;96.30;;;;;;5033124;28;20123;-76
2023/02/04 06:23:07;;;;;;;8.65;8.25;;;10.70;96.20;;;;;;5049307;28;20437;-75
2023/02/04 06:25:33;;;;;;;8.80;8.40;;;10.70;96.20;;;;;;5049407;28;20123;-76
2023/02/04 06:27:59;;;;;;;9.70;9.20;;;10.70;96.20;;;;;;5050753;28;20028;-75
2023/02/04 06:30:25;;;;;;;9.50;9.00;;;10.70;96.30;;;;;;5032828;28;20052;-76
2023/02/04 06:32:51;;;;;;;9.95;9.45;;;10.70;96.30;;;;;;5050679;28;20219;-75
2023/02/04 06:35:16;;;;;;;9.90;9.40;;;10.70;96.20;;;;;;5050636;28;20089;-76
2023/02/04 06:37:43;;;;;;;9.63;9.13;;;10.70;96.20;;;;;;5049320;28;20036;-75
2023/02/04 06:40:10;;;;;;;9.80;9.30;;;10.70;96.20;;;;;;5049492;28;20036;-76
2023/02/04 06:42:36;;;;;;;10.45;9.95;;;10.70;96.20;;;;;;5049137;28;20043;-75
2023/02/04 06:45:01;;;;;;;11.10;10.60;;;10.70;96.20;;;;;;5050366;28;20032;-75
2023/02/04 06:47:27;;;;;;;11.10;10.60;;;10.70;96.20;;;;;;5032535;28;20558;-75
2023/02/04 06:49:53;;;;;;;10.90;10.40;;;10.70;96.20;;;;;;5049140;28;20025;-76
2023/02/04 06:52:18;;;;;;;12.13;11.63;;;10.70;96.20;;;;;;5048960;28;20116;-75
2023/02/04 06:54:44;;;;;;;12.00;11.50;;;10.70;96.20;;;;;;5048844;28;20485;-75
2023/02/04 06:57:11;;;;;;;11.40;10.90;;;10.70;96.20;;;;;;5015380;28;20061;-75
2023/02/04 06:59:38;;;;;;;10.70;10.20;;;10.70;96.20;;;;;;5048868;28;20033;-75
2023/02/04 07:02:06;;;;;;;11.15;10.65;;;10.70;96.30;;;;;;5050006;28;20439;-75
2023/02/04 07:04:32;;;;;;;11.57;11.07;;;10.70;96.20;;;;;;5048504;28;20106;-75
2023/02/04 07:06:58;;;;;;;11.65;11.15;;;10.70;96.20;;;;;;5049990;28;20471;-76
2023/02/04 07:09:23;;;;;;;11.70;11.20;;;10.70;96.20;;;;;;5015687;28;20056;-75
2023/02/04 07:11:49;;;;;;;13.05;12.45;;;10.70;96.20;;;;;;5032064;28;20025;-76
2023/02/04 07:14:15;;;;;;;11.60;11.10;;;10.70;96.20;;;;;;5049813;28;20477;-76
2023/02/04 07:16:41;;;;;;;12.15;11.65;;;10.70;96.20;;;;;;5048477;28;20047;-76
2023/02/04 07:19:06;;;;;;;11.90;11.40;;;10.70;96.40;;;;;;5031937;28;20478;-75
2023/02/04 07:21:32;;;;;;;13.00;12.40;;;10.70;96.20;;;;;;5049912;28;20061;-76
2023/02/04 07:23:58;;;;;;;13.10;12.50;;;10.70;96.20;;;;;;5048296;28;20493;-76
2023/02/04 07:26:23;;;;;;;13.73;13.13;;;10.70;96.20;;;;;;5048340;28;20033;-76
2023/02/04 07:28:49;;;;;;;13.07;12.48;;;10.70;96.20;;;;;;5048289;28;20031;-76
2023/02/04 07:31:15;;;;;;;12.60;12.00;;;10.70;96.20;;;;;;5048212;28;20062;-76
2023/02/04 07:33:41;;;;;;;12.88;12.27;;;10.70;96.20;;;;;;5048257;28;20049;-75
2023/02/04 07:36:07;;;;;;;13.45;12.85;;;10.70;96.20;;;;;;5048176;28;20047;-76
2023/02/04 07:38:32;;;;;;;13.38;12.77;;;10.70;96.20;;;;;;5047934;28;20090;-76
2023/02/04 07:40:58;;;;;;;13.00;12.40;;;10.70;96.20;;;;;;5049486;28;20399;-76
2023/02/04 07:43:24;;;;;;;12.57;11.98;;;10.70;96.20;;;;;;5047966;28;20108;-76
2023/02/04 07:45:50;;;;;;;13.07;12.48;;;10.70;96.20;;;;;;5049537;28;20021;-76
2023/02/04 07:48:15;;;;;;;12.57;11.98;;;10.70;96.20;;;;;;5047924;28;20120;-76
2023/02/04 07:50:41;;;;;;;13.10;12.50;;;10.70;96.20;;;;;;5049268;28;20067;-76
2023/02/04 07:53:07;;;;;;;12.60;12.00;;;10.70;96.20;;;;;;5049016;28;20385;-76
2023/02/04 07:55:34;;;;;;;13.77;13.18;;;10.70;96.20;;;;;;5031297;28;20516;-76
2023/02/04 07:57:59;;;;;;;12.13;11.63;;;10.70;96.20;;;;;;5048618;28;20049;-76
2023/02/04 08:00:25;;;;;;;13.63;13.02;;;10.70;96.20;;;;;;5048800;28;20508;-75
2023/02/04 08:02:51;;;;;;;13.68;13.07;;;10.70;96.20;;;;;;5048797;28;20048;-75
2023/02/04 08:05:17;;;;;;;13.10;12.50;;;10.70;96.20;;;;;;5047542;28;20066;-75
2023/02/04 08:07:42;;;;;;;13.65;13.05;;;10.70;96.20;;;;;;5048056;28;20029;-75
2023/02/04 08:10:09;;;;;;;13.00;12.40;;;10.70;96.20;;;;;;5047440;28;20037;-76
2023/02/04 08:12:35;;;;;;;12.98;12.38;;;10.70;96.20;;;;;;5047332;28;20037;-75
2023/02/04 08:15:01;;;;;;;13.38;12.77;;;10.70;96.20;;;;;;5048513;28;20359;-75
2023/02/04 08:17:27;;;;;;;13.65;13.05;;;10.70;96.20;;;;;;5047302;28;20045;-75
2023/02/04 08:19:53;;;;;;;14.57;13.98;;;10.70;96.20;;;;;;5047207;28;20033;-75
2023/02/04 08:22:19;;;;;;;13.55;12.95;;;10.70;96.20;;;;;;5047042;28;20060;-75
2023/02/04 08:24:44;;;;;;;12.82;12.23;;;10.70;96.20;;;;;;5014097;28;20057;-75
2023/02/04 08:27:11;;;;;;;14.00;13.40;;;10.70;96.20;;;;;;5048201;28;20160;-75
2023/02/04 08:29:36;;;;;;;15.63;14.93;;;10.70;96.20;;;;;;5048120;28;20056;-75
2023/02/04 08:32:03;;;;;;;15.98;15.27;;;10.70;96.40;;;;;;5046598;28;20477;-75
2023/02/04 08:34:29;;;;;;;18.88;18.08;;;10.70;96.20;;;;;;5046729;28;20042;-76
2023/02/04 08:36:54;;;;;;;;;;;10.80;96.20;;;;;;5047066;28;20378;-75
2023/02/04 08:39:20;;;;;;;18.90;18.10;;;10.80;96.30;;;;;;5047973;28;20377;-75
2023/02/04 08:41:48;;;;;;;20.10;19.30;;;10.80;96.20;;;;;;5047026;28;20029;-75
2023/02/04 08:44:14;;;;;;;20.48;19.67;;;10.80;96.20;;;;;;5047919;28;20167;-76
2023/02/04 08:46:40;;;;;;;;;;;10.80;96.20;;;;;;5030884;28;20029;-75
2023/02/04 08:49:05;;;;;;;22.50;21.60;;;10.80;96.20;;;;;;5047951;28;19916;-75
2023/02/04 08:51:31;;;;;;;24.75;23.75;;;10.80;96.10;;;;;;5029993;28;20481;-76
2023/02/04 08:53:57;;;;;;;26.77;25.77;;;10.80;96.20;;;;;;5029860;28;20037;-75
2023/02/04 08:56:23;;;;;;;28.02;26.92;;;10.80;96.20;;;;;;5047502;28;20473;-75
2023/02/04 08:58:48;;;;;;;27.70;26.60;;;10.80;96.20;;;;;;5029801;28;20029;-75
2023/02/04 09:01:15;;;;;;;28.92;27.83;;;10.80;96.20;;;;;;5047332;28;20044;-76
2023/02/04 09:03:40;;;;;;;32.05;30.85;;;10.80;96.20;;;;;;5047441;28;20067;-75
2023/02/04 09:06:07;;;;;;;33.95;32.65;;;10.90;96.20;;;;;;5045922;28;20060;-76
2023/02/04 09:08:33;;;;;;;35.80;34.50;;;10.90;96.20;;;;;;5045738;28;20048;-76
2023/02/04 09:10:59;;;;;;;36.22;34.83;;;10.90;96.20;;;;;;5046287;28;20039;-76
2023/02/04 09:13:24;;;;;;;38.67;37.17;;;10.80;96.20;;;;;;5045767;28;20116;-76
2023/02/04 09:15:51;;;;;;;41.08;39.58;;;10.90;96.20;;;;;;5012921;28;20052;-76
2023/02/04 09:18:20;;;;;;;39.80;38.30;;;10.90;96.20;;;;;;5045814;28;20029;-76
2023/02/04 09:20:47;;;;;;;39.88;38.38;;;10.80;96.20;;;;;;5045733;28;20432;-75
2023/02/04 09:23:14;;;;;;;38.25;36.85;;;10.90;96.20;;;;;;5047272;28;20071;-76
2023/02/04 09:25:41;;;;;;;40.30;38.80;;;10.80;96.20;;;;;;5047073;28;20034;-76
2023/02/04 09:28:11;;;;;;;36.90;35.50;;;10.80;96.20;;;;;;5029308;28;20116;-75
2023/02/04 09:30:42;;;;;;;35.60;34.30;;;10.80;96.20;;;;;;5046969;28;20032;-77
2023/02/04 09:33:09;;;;;;;34.35;33.05;;;10.80;96.20;;;;;;5045920;28;20075;-76
2023/02/04 09:35:35;;;;;;;33.33;32.03;;;10.90;96.20;;;;;;5029385;28;20028;-76
2023/02/04 09:38:01;;;;;;;35.40;34.10;;;10.90;96.20;;;;;;5046724;28;20075;-76
2023/02/04 09:40:29;;;;;;;32.20;31.00;;;10.90;96.20;;;;;;5045456;28;20052;-76
2023/02/04 09:42:55;;;;;;;30.70;29.50;;;11.00;96.20;;;;;;5028861;28;20029;-76
2023/02/04 09:45:26;;;;;;;31.70;30.50;;;11.00;96.30;;;;;;5028604;28;20124;-77
2023/02/04 09:47:54;;;;;;;30.40;29.20;;;11.10;96.30;;;;;;5045309;28;20024;-76
2023/02/04 09:50:23;;;;;;;28.70;27.60;;;11.10;96.30;;;;;;5046616;28;20469;-77
2023/02/04 09:52:50;;;;;;;30.33;29.13;;;11.20;96.30;;;;;;5047966;28;20064;-76
2023/02/04 09:55:18;;;;;;;29.13;28.02;;;11.20;96.20;;;;;;5048013;28;20053;-76
2023/02/04 09:57:45;;;;;;;30.13;28.92;;;11.20;96.20;;;;;;5047871;28;20091;-76
2023/02/04 10:00:16;;;;;;;30.02;28.88;;;11.20;96.20;;;;;;5046234;28;20053;-76
2023/02/04 10:02:41;;;;;;;30.33;29.13;;;11.20;96.20;;;;;;5046641;28;20021;-78
2023/02/04 10:05:16;;;;;;;30.38;29.17;;;11.20;96.20;;;;;;5047259;28;20037;-75
2023/02/04 10:07:42;;;;;;;30.60;29.40;;;11.20;96.20;;;;;;5048201;28;20021;-76
2023/02/04 10:10:20;;;;;;;31.73;30.52;;;11.20;96.20;;;;;;5048019;28;20488;-75
2023/02/04 10:12:48;;;;;;;32.40;31.20;;;11.20;96.20;;;;;;5046757;28;20162;-75
2023/02/04 10:15:18;;;;;;;31.75;30.55;;;11.20;96.30;;;;;;5047113;28;20029;-76
2023/02/04 10:17:49;;;;;;;32.15;30.95;;;11.20;96.30;;;;;;5048626;28;20025;-78
2023/02/04 10:20:20;;;;;;;31.98;30.77;;;11.20;96.30;;;;;;5048006;28;20179;-82
2023/02/04 10:22:47;;;;;;;32.58;31.38;;;11.30;96.30;;;;;;5042506;28;20449;-77
2023/02/04 10:25:16;;;;;;;32.65;31.45;;;11.30;96.30;;;;;;5034564;28;20021;-77
2023/02/04 10:27:52;;;;;;;31.70;30.50;;;11.30;96.30;;;;;;5038557;28;20064;-77
2023/02/04 10:30:20;;;;;;;31.87;30.67;;;11.30;96.30;;;;;;5009279;28;20430;-77
2023/02/04 10:32:46;;;;;;;32.50;31.30;;;11.40;96.30;;;;;;5039419;28;20076;-76
2023/02/04 10:35:14;;;;;;;31.40;30.20;;;11.40;96.30;;;;;;5032308;28;20021;-78
2023/02/04 10:37:40;;;;;;;31.30;30.10;;;11.40;96.30;;;;;;5030446;28;20132;-76
2023/02/04 10:40:28;;;;;;;31.75;30.55;;;11.50;96.40;;;;;;5023242;28;20230;-76
2023/02/04 10:42:54;;;;;;;29.08;27.98;;;11.50;96.40;;;;;;5012456;28;20076;-76
2023/02/04 10:45:20;;;;;;;;;;;11.60;96.40;;;;;;5017392;28;20038;-78
2023/02/04 10:47:50;;;;;;;28.00;26.90;;;11.70;96.40;;;;;;5050832;28;19928;-79
2023/02/04 10:50:34;;;;;;;28.27;27.17;;;11.80;96.40;;;;;;5046174;28;20354;-77
2023/02/04 10:55:46;;;;;;;26.83;25.83;;;12.00;96.30;;;;;;5038509;28;20466;-76
2023/02/04 10:58:26;;;;;;;26.67;25.67;;;12.00;96.30;;;;;;5036301;28;20057;-78
2023/02/04 11:00:52;;;;;;;27.42;26.35;;;12.10;96.40;;;;;;5030674;28;20039;-75
2023/02/04 11:03:18;;;;;;;27.08;26.05;;;12.20;96.30;;;;;;5049950;28;20446;-75
2023/02/04 11:05:43;;;;;;;26.70;25.70;;;12.30;96.30;;;;;;5051670;28;20025;-75
2023/02/04 11:08:29;;;;;;;27.30;26.20;;;12.30;96.20;;;;;;5049811;28;20033;-75
2023/02/04 11:11:06;;;;;;;27.63;26.52;;;12.30;96.30;;;;;;5051622;28;20021;-76
2023/02/04 11:13:49;;;;;;;27.30;26.20;;;12.20;96.20;;;;;;5051334;28;20025;-77
2023/02/04 11:16:17;;;;;;;27.13;26.13;;;12.20;96.20;;;;;;5051082;28;20100;-75
2023/02/04 11:18:50;;;;;;;26.30;25.30;;;12.20;96.30;;;;;;5050958;28;20082;-73
2023/02/04 11:21:33;;;;;;;28.25;27.15;;;12.20;96.30;;;;;;5051118;28;20033;-76
2023/02/04 11:24:10;;;;;;;25.63;24.63;;;12.20;96.30;;;;;;5051082;28;20155;-76
2023/02/04 11:27:07;;;;;;;26.80;25.80;;;12.20;96.40;;;;;;5051024;28;20469;-75
2023/02/04 11:29:37;;;;;;;24.80;23.80;;;12.30;96.40;;;;;;5051599;28;20033;-79
2023/02/04 11:32:28;;;;;;;25.92;24.92;;;12.40;96.40;;;;;;5033041;28;20025;-72
2023/02/04 11:35:04;;;;;;;25.38;23.10;;;12.40;96.40;;;;;;5048321;28;20520;-72
2023/02/04 11:37:41;;;;;;;23.83;22.92;;;12.50;96.40;;;;;;5042169;28;20025;-77
2023/02/04 11:40:24;;;;;;;23.30;22.40;;;12.60;96.40;;;;;;5050878;28;20029;-79
2023/02/04 11:42:56;;;;;;;23.65;22.75;;;12.60;96.30;;;;;;5048065;28;20029;-79
2023/02/04 11:45:27;;;;;;;24.20;23.30;;;12.70;96.40;;;;;;5038736;28;20036;-78
2023/02/04 11:48:00;;;;;;;22.55;21.65;;;12.80;96.40;;;;;;5031817;28;20044;-78
2023/02/04 11:50:38;;;;;;;21.05;20.25;;;12.80;96.40;;;;;;5043073;28;20108;-78
2023/02/04 11:53:04;;;;;;;20.17;19.38;;;12.90;96.50;;;;;;5010950;28;20025;-78
2023/02/04 11:55:34;;;;;;;19.73;18.92;;;13.10;96.50;;;;;;5010989;28;20045;-78
2023/02/04 11:58:00;;;;;;;19.23;18.42;;;13.10;96.30;;;;;;5033691;28;20518;-78
2023/02/04 12:00:31;;;;;;;20.10;19.30;;;13.10;96.20;;;;;;5029473;28;20127;-77
2023/02/04 12:03:22;;;;;;;19.65;18.85;;;13.10;96.30;;;;;;5041497;28;20403;-78
2023/02/04 12:05:48;;;;;;;17.83;17.13;;;13.10;96.40;;;;;;5030834;28;20029;-78
2023/02/04 12:08:31;;;;;;;18.05;17.35;;;13.20;96.40;;;;;;5031567;28;20056;-77
2023/02/04 12:11:03;;;;;;;16.88;16.17;;;13.30;96.40;;;;;;5036780;28;20037;-77
2023/02/04 12:13:30;;;;;;;18.27;17.55;;;13.30;96.60;;;;;;5036975;28;20028;-78
2023/02/04 12:16:04;;;;;;;17.23;16.52;;;13.30;96.40;;;;;;5035142;28;20037;-78
2023/02/04 12:18:31;;;;;;;17.33;16.63;;;13.30;96.40;;;;;;5044816;28;20102;-80
2023/02/04 12:20:58;;;;;;;18.67;17.88;;;13.30;96.30;;;;;;5047557;28;20421;-78
2023/02/04 12:23:25;;;;;;;18.27;17.55;;;13.30;96.30;;;;;;5049330;28;20043;-78
2023/02/04 12:25:51;;;;;;;18.20;17.50;;;13.20;96.30;;;;;;5049306;28;20029;-78
2023/02/04 12:28:17;;;;;;;17.10;16.40;;;13.30;96.40;;;;;;5048860;28;20059;-73
2023/02/04 12:30:43;;;;;;;15.35;14.70;;;13.30;96.60;;;;;;5049129;28;20056;-75
2023/02/04 12:33:09;;;;;;;14.63;14.02;;;13.50;96.70;;;;;;5049459;28;20052;-77
2023/02/04 12:35:35;;;;;;;14.95;14.35;;;13.60;96.60;;;;;;5049545;28;20033;-76